Time;durP1;ratioP1;P1;durP2;ratioP2;P2;SDS_P1;SDS_P2;PMS_P1;PMS_P2;Temp;Humidity;BMP_temperature;BMP_pressure;BME280_temperature;BME280_humidity;BME280_pressure;Samples;Min_cycle;Max_cycle;Signal;HPM_P1;HPM_P2
2021/04/25 00:02:25;;;;;;;14.45;10.25;;;11.20;80.50;;;;;;5057448;28;20025;-71
2021/04/25 00:04:51;;;;;;;13.85;10.20;;;11.20;80.80;;;;;;5056966;28;20029;-71
2021/04/25 00:07:16;;;;;;;16.83;11.50;;;11.30;81.20;;;;;;5056563;28;20028;-71
2021/04/25 00:09:43;;;;;;;13.10;10.15;;;11.30;81.30;;;;;;5057403;28;20090;-71
2021/04/25 00:12:09;;;;;;;21.48;11.40;;;11.30;80.70;;;;;;5056998;28;20109;-71
2021/04/25 00:14:35;;;;;;;15.98;10.73;;;11.30;80.90;;;;;;5056887;28;20029;-71
2021/04/25 00:17:01;;;;;;;15.30;10.88;;;11.30;81.10;;;;;;5056865;28;20025;-71
2021/04/25 00:19:27;;;;;;;12.10;9.35;;;11.30;80.40;;;;;;5056888;28;20025;-71
2021/04/25 00:21:53;;;;;;;13.63;8.90;;;11.20;79.80;;;;;;5057198;28;20100;-71
2021/04/25 00:24:18;;;;;;;12.75;8.57;;;11.20;80.00;;;;;;5057154;28;20336;-73
2021/04/25 00:26:44;;;;;;;13.38;8.85;;;11.10;80.30;;;;;;5057067;28;20032;-71
2021/04/25 00:29:10;;;;;;;10.82;7.90;;;11.10;80.00;;;;;;5056744;28;20029;-73
2021/04/25 00:31:35;;;;;;;13.23;8.85;;;11.10;79.90;;;;;;5057073;28;20029;-73
2021/04/25 00:34:01;;;;;;;12.98;8.68;;;11.10;80.10;;;;;;5056638;28;20443;-73
2021/04/25 00:36:27;;;;;;;13.43;7.72;;;11.10;80.00;;;;;;5056902;28;20036;-73
2021/04/25 00:38:54;;;;;;;14.60;7.75;;;11.00;80.10;;;;;;5056565;28;20338;-73
2021/04/25 00:41:20;;;;;;;11.75;7.63;;;11.00;80.10;;;;;;5056597;28;20432;-73
2021/04/25 00:43:45;;;;;;;10.63;8.45;;;11.00;79.90;;;;;;5056493;28;20021;-73
2021/04/25 00:46:11;;;;;;;11.00;8.82;;;11.10;80.20;;;;;;5056845;28;20036;-73
2021/04/25 00:48:37;;;;;;;13.50;10.55;;;11.20;80.60;;;;;;5056837;28;20033;-73
2021/04/25 00:51:03;;;;;;;15.95;10.30;;;11.20;80.30;;;;;;5056518;28;20341;-73
2021/04/25 00:53:29;;;;;;;14.48;10.90;;;11.20;80.40;;;;;;5056755;28;20040;-73
2021/04/25 00:55:55;;;;;;;12.93;9.00;;;11.10;80.50;;;;;;5056682;28;20055;-73
2021/04/25 00:58:22;;;;;;;17.38;10.07;;;11.00;80.70;;;;;;5056383;28;20055;-73
2021/04/25 01:00:48;;;;;;;14.55;10.05;;;11.00;80.90;;;;;;5056414;28;20413;-73
2021/04/25 01:03:17;;;;;;;13.68;9.30;;;10.90;81.10;;;;;;5056720;28;20036;-73
2021/04/25 01:05:43;;;;;;;11.82;9.75;;;10.90;81.20;;;;;;5056346;28;20025;-73
2021/04/25 01:08:09;;;;;;;14.50;9.88;;;10.90;81.50;;;;;;5056645;28;20086;-73
2021/04/25 01:10:35;;;;;;;16.00;10.43;;;10.90;81.20;;;;;;5056625;28;20025;-73
2021/04/25 01:13:01;;;;;;;13.70;9.98;;;10.90;81.30;;;;;;5056300;28;20321;-73
2021/04/25 01:15:27;;;;;;;12.90;10.23;;;10.90;81.10;;;;;;5056449;28;20028;-73
2021/04/25 01:17:53;;;;;;;13.93;9.90;;;10.90;81.10;;;;;;5058518;28;20393;-73
2021/04/25 01:20:21;;;;;;;13.63;10.55;;;10.90;81.10;;;;;;5060263;28;20044;-71
2021/04/25 01:22:47;;;;;;;14.07;9.93;;;10.90;81.10;;;;;;5060104;28;20033;-73
2021/04/25 01:25:15;;;;;;;12.38;9.95;;;10.90;81.10;;;;;;5060029;28;20083;-73
2021/04/25 01:27:41;;;;;;;12.27;9.07;;;10.90;81.20;;;;;;5060384;28;20049;-73
2021/04/25 01:30:10;;;;;;;12.40;9.63;;;10.80;81.10;;;;;;5060402;28;20033;-73
2021/04/25 01:32:42;;;;;;;12.77;9.45;;;10.90;81.00;;;;;;5060309;28;20075;-73
2021/04/25 01:35:09;;;;;;;10.82;8.50;;;10.90;80.80;;;;;;5060204;28;20053;-73
2021/04/25 01:37:35;;;;;;;11.55;8.88;;;10.90;80.60;;;;;;5060158;28;20033;-73
2021/04/25 01:40:00;;;;;;;12.80;8.98;;;10.90;80.20;;;;;;5059753;28;20041;-73
2021/04/25 01:42:26;;;;;;;10.93;7.97;;;10.90;80.10;;;;;;5060230;28;20405;-73
2021/04/25 01:44:52;;;;;;;11.82;8.57;;;10.90;80.00;;;;;;5059708;28;20391;-73
2021/04/25 01:47:17;;;;;;;13.50;8.30;;;10.90;80.00;;;;;;5059996;28;20033;-73
2021/04/25 01:49:43;;;;;;;13.45;9.05;;;10.80;79.80;;;;;;5059989;28;20031;-73
2021/04/25 01:52:09;;;;;;;10.23;8.73;;;10.80;79.60;;;;;;5059948;28;20171;-73
2021/04/25 01:54:34;;;;;;;12.95;8.48;;;10.90;79.40;;;;;;5059940;28;20033;-73
2021/04/25 01:57:00;;;;;;;9.38;7.40;;;10.90;79.30;;;;;;5059746;28;20040;-73
2021/04/25 01:59:26;;;;;;;11.32;7.70;;;10.90;79.70;;;;;;5059861;28;20420;-73
2021/04/25 02:01:51;;;;;;;11.13;7.55;;;11.00;79.40;;;;;;5059758;28;20055;-71
2021/04/25 02:04:17;;;;;;;11.10;6.85;;;11.00;79.20;;;;;;5059683;28;20071;-73
2021/04/25 02:06:43;;;;;;;9.23;7.05;;;10.90;78.90;;;;;;5059683;28;20106;-71
2021/04/25 02:09:10;;;;;;;11.77;6.03;;;10.90;78.60;;;;;;5059620;28;20057;-71
2021/04/25 02:11:37;;;;;;;11.82;6.45;;;10.80;77.80;;;;;;5059647;28;20025;-71
2021/04/25 02:14:06;;;;;;;10.35;5.97;;;10.70;77.70;;;;;;5059150;28;20478;-71
2021/04/25 02:16:32;;;;;;;10.10;5.28;;;10.60;77.80;;;;;;5059079;28;20028;-71
2021/04/25 02:18:58;;;;;;;10.93;5.40;;;10.50;77.20;;;;;;5059159;28;20021;-71
2021/04/25 02:21:24;;;;;;;9.20;5.80;;;10.50;76.90;;;;;;5059434;28;20033;-71
2021/04/25 02:23:49;;;;;;;13.80;5.30;;;10.50;78.00;;;;;;5059341;28;20029;-71
2021/04/25 02:26:15;;;;;;;11.80;5.40;;;10.40;77.20;;;;;;5058985;28;20041;-71
2021/04/25 02:28:41;;;;;;;9.63;5.10;;;10.40;76.60;;;;;;5057976;28;20036;-71
2021/04/25 02:31:07;;;;;;;9.15;5.22;;;10.40;76.80;;;;;;5059265;28;20049;-71
2021/04/25 02:33:33;;;;;;;11.90;5.50;;;10.40;77.20;;;;;;5059093;28;20401;-73
2021/04/25 02:35:58;;;;;;;6.80;5.15;;;10.30;77.20;;;;;;5059032;28;20167;-73
2021/04/25 02:38:24;;;;;;;10.35;5.22;;;10.30;77.00;;;;;;5058609;28;20432;-73
2021/04/25 02:40:50;;;;;;;12.30;5.90;;;10.20;77.10;;;;;;5059033;28;20033;-73
2021/04/25 02:43:16;;;;;;;10.50;6.20;;;10.20;78.10;;;;;;5059003;28;20017;-73
2021/04/25 02:45:42;;;;;;;13.93;6.63;;;10.10;78.30;;;;;;5058538;28;20032;-71
2021/04/25 02:48:09;;;;;;;7.85;5.60;;;10.10;78.80;;;;;;5058573;28;20029;-71
2021/04/25 02:50:41;;;;;;;10.95;6.63;;;10.00;78.70;;;;;;5058585;28;20029;-71
2021/04/25 02:53:08;;;;;;;9.43;5.97;;;10.10;78.70;;;;;;5059161;28;20332;-71
2021/04/25 02:55:34;;;;;;;10.07;5.43;;;10.10;78.80;;;;;;5058594;28;20044;-71
2021/04/25 02:58:00;;;;;;;9.32;6.00;;;10.10;78.90;;;;;;5058732;28;20017;-71
2021/04/25 03:00:29;;;;;;;10.80;6.22;;;10.10;78.20;;;;;;5058722;28;20025;-71
2021/04/25 03:02:55;;;;;;;12.27;7.63;;;10.10;78.00;;;;;;5058609;28;20027;-71
2021/04/25 03:05:22;;;;;;;10.00;7.22;;;10.10;77.80;;;;;;5058272;28;20025;-71
2021/04/25 03:07:47;;;;;;;13.15;7.07;;;10.10;77.90;;;;;;5058517;28;20025;-71
2021/04/25 03:10:15;;;;;;;10.90;6.93;;;10.10;78.60;;;;;;5058252;28;20037;-71
2021/04/25 03:12:41;;;;;;;11.10;6.20;;;10.10;78.50;;;;;;5058429;28;20108;-71
2021/04/25 03:15:10;;;;;;;12.35;6.43;;;10.10;79.30;;;;;;5058325;28;20061;-71
2021/04/25 03:17:36;;;;;;;11.48;6.70;;;10.20;77.50;;;;;;5058237;28;20051;-71
2021/04/25 03:20:07;;;;;;;10.32;5.57;;;10.20;77.10;;;;;;5058201;28;20036;-71
2021/04/25 03:22:33;;;;;;;10.00;5.20;;;10.20;76.70;;;;;;5057924;28;20017;-71
2021/04/25 03:24:59;;;;;;;10.65;5.97;;;10.10;76.20;;;;;;5057740;28;20048;-71
2021/04/25 03:27:26;;;;;;;9.63;6.40;;;10.20;76.40;;;;;;5058181;28;20029;-71
2021/04/25 03:29:52;;;;;;;13.52;6.32;;;10.10;76.60;;;;;;5057849;28;20064;-71
2021/04/25 03:32:18;;;;;;;10.00;6.18;;;10.10;77.20;;;;;;5057749;28;20448;-71
2021/04/25 03:34:44;;;;;;;12.00;7.18;;;10.20;77.10;;;;;;5057917;28;20029;-70
2021/04/25 03:37:10;;;;;;;10.63;6.63;;;10.20;77.40;;;;;;5057637;28;20325;-71
2021/04/25 03:39:36;;;;;;;12.57;6.97;;;10.20;77.70;;;;;;5057504;28;20049;-70
2021/04/25 03:42:02;;;;;;;10.45;6.78;;;10.20;77.40;;;;;;5057788;28;20049;-71
2021/04/25 03:44:28;;;;;;;13.40;6.82;;;10.10;77.70;;;;;;5057769;28;20029;-71
2021/04/25 03:46:53;;;;;;;8.13;6.43;;;10.00;78.30;;;;;;5057762;28;20029;-71
2021/04/25 03:49:22;;;;;;;13.23;7.22;;;10.00;78.20;;;;;;5057647;28;20033;-71
2021/04/25 03:51:49;;;;;;;14.80;7.80;;;9.90;78.00;;;;;;5057726;28;20066;-70
2021/04/25 03:54:16;;;;;;;9.07;6.03;;;9.90;77.50;;;;;;5057682;28;20083;-71
2021/04/25 03:56:42;;;;;;;9.48;6.80;;;9.80;77.80;;;;;;5057205;28;20082;-72
2021/04/25 03:59:07;;;;;;;9.30;6.38;;;9.70;77.50;;;;;;5057570;28;20032;-73
2021/04/25 04:01:33;;;;;;;10.40;5.65;;;9.70;77.80;;;;;;5057533;28;20313;-73
2021/04/25 04:03:59;;;;;;;10.02;6.25;;;9.70;77.70;;;;;;5057445;28;20108;-73
2021/04/25 04:06:24;;;;;;;9.65;5.88;;;9.70;77.40;;;;;;5057112;28;20051;-71
2021/04/25 04:08:50;;;;;;;10.65;6.57;;;9.70;77.30;;;;;;5057049;28;20032;-73
2021/04/25 04:11:15;;;;;;;12.48;7.07;;;9.70;76.20;;;;;;5057419;28;20117;-73
2021/04/25 04:13:41;;;;;;;12.10;6.90;;;9.70;76.00;;;;;;5057212;28;20028;-73
2021/04/25 04:16:07;;;;;;;11.05;7.47;;;9.80;76.70;;;;;;5057173;28;20104;-73
2021/04/25 04:18:33;;;;;;;13.27;7.85;;;9.90;78.20;;;;;;5056929;28;20472;-73
2021/04/25 04:20:58;;;;;;;16.45;9.13;;;9.90;79.50;;;;;;5057231;28;20032;-73
2021/04/25 04:23:24;;;;;;;12.05;9.15;;;9.90;80.30;;;;;;5057088;28;20029;-73
2021/04/25 04:25:50;;;;;;;12.88;8.82;;;9.90;81.10;;;;;;5057107;28;20044;-73
2021/04/25 04:28:15;;;;;;;13.43;8.30;;;9.90;81.60;;;;;;5056787;28;20358;-73
2021/04/25 04:30:41;;;;;;;15.20;7.97;;;9.90;80.70;;;;;;5056756;28;20021;-73
2021/04/25 04:33:07;;;;;;;15.40;8.75;;;10.00;80.20;;;;;;5056715;28;20033;-73
2021/04/25 04:35:32;;;;;;;13.23;8.45;;;10.00;81.30;;;;;;5056617;28;20049;-73
2021/04/25 04:37:58;;;;;;;11.10;7.75;;;10.00;81.40;;;;;;5056651;28;20033;-73
2021/04/25 04:40:24;;;;;;;11.40;7.65;;;10.00;81.10;;;;;;5056957;28;20043;-73
2021/04/25 04:42:50;;;;;;;10.15;6.53;;;10.10;80.90;;;;;;5056865;28;20033;-73
2021/04/25 04:45:16;;;;;;;15.77;6.88;;;10.10;80.60;;;;;;5056472;28;20283;-73
2021/04/25 04:47:43;;;;;;;12.65;6.93;;;10.20;81.00;;;;;;5056560;28;20032;-73
2021/04/25 04:50:09;;;;;;;14.48;7.10;;;10.20;81.00;;;;;;5056852;28;20060;-73
2021/04/25 04:52:35;;;;;;;8.73;6.30;;;10.30;80.70;;;;;;5056225;28;20036;-73
2021/04/25 04:55:00;;;;;;;10.73;6.95;;;10.30;80.50;;;;;;5056962;28;20032;-73
2021/04/25 04:57:26;;;;;;;13.32;6.47;;;10.40;79.40;;;;;;5056330;28;20064;-73
2021/04/25 04:59:52;;;;;;;9.15;6.55;;;10.50;78.80;;;;;;5056765;28;20055;-73
2021/04/25 05:02:17;;;;;;;8.75;6.22;;;10.60;79.40;;;;;;5056426;28;20032;-73
2021/04/25 05:04:43;;;;;;;8.48;6.00;;;10.70;78.60;;;;;;5056581;28;20021;-73
2021/04/25 05:07:09;;;;;;;11.85;6.97;;;10.90;79.00;;;;;;5056400;28;20317;-73
2021/04/25 05:09:34;;;;;;;10.35;6.88;;;11.00;77.20;;;;;;5056660;28;20098;-73
2021/04/25 05:12:00;;;;;;;10.35;6.05;;;11.20;77.00;;;;;;5056618;28;20409;-73
2021/04/25 05:14:26;;;;;;;7.75;5.70;;;11.20;75.70;;;;;;5056535;28;20513;-73
2021/04/25 05:16:51;;;;;;;11.50;6.53;;;11.30;76.10;;;;;;5056160;28;20025;-73
2021/04/25 05:19:17;;;;;;;10.10;6.10;;;11.40;76.60;;;;;;5056621;28;20028;-73
2021/04/25 05:21:43;;;;;;;10.02;6.57;;;11.40;77.20;;;;;;5056576;28;20025;-73
2021/04/25 05:24:10;;;;;;;12.00;6.97;;;11.50;76.60;;;;;;5056470;28;20381;-73
2021/04/25 05:26:35;;;;;;;10.27;5.88;;;11.40;76.80;;;;;;5056501;28;20040;-73
2021/04/25 05:29:01;;;;;;;10.02;6.28;;;11.40;77.40;;;;;;5056497;28;20029;-73
2021/04/25 05:31:27;;;;;;;9.70;6.22;;;11.30;77.00;;;;;;5056473;28;20025;-73
2021/04/25 05:33:52;;;;;;;12.88;6.60;;;11.30;76.50;;;;;;5056067;28;20329;-73
2021/04/25 05:36:18;;;;;;;12.40;6.10;;;11.40;77.40;;;;;;5056056;28;20115;-73
2021/04/25 05:38:44;;;;;;;10.27;6.35;;;11.50;77.10;;;;;;5056092;28;20083;-73
2021/04/25 05:41:09;;;;;;;11.20;6.75;;;11.60;75.10;;;;;;5056078;28;20025;-73
2021/04/25 05:43:35;;;;;;;12.20;6.45;;;11.80;71.20;;;;;;5056292;28;20025;-73
2021/04/25 05:46:01;;;;;;;14.18;6.93;;;12.00;70.90;;;;;;5055999;28;20413;-73
2021/04/25 05:48:26;;;;;;;12.50;7.28;;;12.20;68.90;;;;;;5056286;28;20052;-73
2021/04/25 05:50:52;;;;;;;10.32;6.47;;;12.40;69.50;;;;;;5055988;28;20060;-73
2021/04/25 05:53:19;;;;;;;11.85;7.15;;;12.50;68.70;;;;;;5056165;28;20029;-73
2021/04/25 05:55:45;;;;;;;10.65;6.55;;;12.60;66.30;;;;;;5056162;28;20107;-71
2021/04/25 05:58:10;;;;;;;13.63;7.18;;;12.70;67.30;;;;;;5055935;28;20164;-71
2021/04/25 06:00:38;;;;;;;12.02;7.07;;;12.80;67.00;;;;;;5056258;28;20017;-71
2021/04/25 06:03:05;;;;;;;11.52;6.15;;;13.00;64.80;;;;;;5056168;28;20036;-71
2021/04/25 06:05:31;;;;;;;13.75;7.15;;;13.10;65.60;;;;;;5058481;28;20025;-71
2021/04/25 06:07:57;;;;;;;10.82;6.10;;;13.20;66.30;;;;;;5059667;28;20112;-71
2021/04/25 06:10:23;;;;;;;10.80;6.00;;;13.20;66.90;;;;;;5059661;28;20321;-72
2021/04/25 06:12:51;;;;;;;13.07;6.50;;;13.30;67.40;;;;;;5059588;28;20033;-71
2021/04/25 06:15:21;;;;;;;9.82;6.45;;;13.50;65.70;;;;;;5059453;28;20392;-71
2021/04/25 06:17:47;;;;;;;9.75;6.15;;;13.60;65.10;;;;;;5059436;28;20025;-71
2021/04/25 06:20:13;;;;;;;10.63;5.78;;;13.90;65.90;;;;;;5059169;28;20294;-71
2021/04/25 06:22:40;;;;;;;12.23;6.18;;;14.20;67.30;;;;;;5059116;28;20083;-71
2021/04/25 06:25:07;;;;;;;12.65;6.28;;;14.50;65.10;;;;;;5059263;28;20321;-71
2021/04/25 06:27:33;;;;;;;10.32;6.38;;;14.60;65.20;;;;;;5058962;28;20083;-71
2021/04/25 06:29:59;;;;;;;10.38;6.70;;;14.90;65.20;;;;;;5059657;28;20033;-71
2021/04/25 06:32:24;;;;;;;9.20;5.90;;;15.20;63.90;;;;;;5058864;28;20029;-72
2021/04/25 06:34:50;;;;;;;7.90;5.57;;;15.80;61.60;;;;;;5059105;28;20033;-72
2021/04/25 06:37:16;;;;;;;9.80;6.43;;;16.50;60.80;;;;;;5059058;28;20036;-72
2021/04/25 06:39:42;;;;;;;8.18;5.28;;;17.10;58.30;;;;;;5058666;28;20048;-72
2021/04/25 06:42:07;;;;;;;8.57;5.50;;;17.70;57.80;;;;;;5058725;28;20025;-72
2021/04/25 06:44:33;;;;;;;9.23;5.47;;;18.10;58.10;;;;;;5058596;28;20017;-72
2021/04/25 06:46:59;;;;;;;6.55;5.43;;;18.50;59.00;;;;;;5058684;28;20036;-72
2021/04/25 06:49:25;;;;;;;7.10;4.78;;;18.70;57.40;;;;;;5058909;28;20043;-72
2021/04/25 06:51:52;;;;;;;8.95;5.50;;;18.80;59.40;;;;;;5058867;28;20025;-72
2021/04/25 06:54:18;;;;;;;7.57;5.53;;;18.70;58.00;;;;;;5058892;28;20029;-72
2021/04/25 06:56:44;;;;;;;11.90;5.45;;;18.50;58.80;;;;;;5058733;28;20417;-72
2021/04/25 06:59:09;;;;;;;8.52;5.95;;;18.70;59.70;;;;;;5058455;28;20032;-72
2021/04/25 07:01:35;;;;;;;9.40;5.90;;;19.20;57.30;;;;;;5058746;28;20028;-72
2021/04/25 07:04:01;;;;;;;8.77;5.18;;;19.40;56.00;;;;;;5058587;28;20036;-72
2021/04/25 07:06:27;;;;;;;8.43;5.75;;;19.50;56.30;;;;;;5058289;28;20028;-72
2021/04/25 07:08:53;;;;;;;7.10;5.10;;;19.70;54.60;;;;;;5058545;28;20025;-72
2021/04/25 07:11:19;;;;;;;8.50;5.03;;;19.70;56.10;;;;;;5058274;28;20025;-72
2021/04/25 07:13:44;;;;;;;8.27;5.35;;;19.90;55.10;;;;;;5058088;28;20059;-72
2021/04/25 07:16:10;;;;;;;9.05;5.88;;;20.20;56.50;;;;;;5057582;28;20112;-72
2021/04/25 07:18:36;;;;;;;8.85;6.22;;;20.60;54.50;;;;;;5058349;28;20021;-72
2021/04/25 07:21:02;;;;;;;9.68;6.03;;;20.50;54.30;;;;;;5058346;28;20028;-74
2021/04/25 07:23:28;;;;;;;9.50;5.60;;;20.70;54.00;;;;;;5058053;28;20033;-74
2021/04/25 07:25:55;;;;;;;11.52;6.10;;;21.00;54.90;;;;;;5057875;28;20052;-74
2021/04/25 07:28:24;;;;;;;10.40;5.88;;;21.10;54.20;;;;;;5057852;28;20033;-74
2021/04/25 07:30:52;;;;;;;6.60;5.15;;;21.30;54.30;;;;;;5057842;28;20045;-73
2021/04/25 07:33:19;;;;;;;10.18;5.78;;;21.60;54.20;;;;;;5057794;28;20025;-72
2021/04/25 07:35:45;;;;;;;9.98;6.72;;;21.90;52.60;;;;;;5057969;28;20099;-72
2021/04/25 07:38:12;;;;;;;8.10;6.05;;;22.00;51.60;;;;;;5057766;28;20068;-72
2021/04/25 07:40:38;;;;;;;8.05;5.85;;;22.00;52.80;;;;;;5057946;28;20013;-72
2021/04/25 07:43:05;;;;;;;10.65;5.97;;;22.10;49.80;;;;;;5057605;28;20025;-74
2021/04/25 07:45:32;;;;;;;7.95;6.15;;;22.10;51.40;;;;;;5057448;28;20448;-74
2021/04/25 07:47:57;;;;;;;9.57;6.30;;;22.10;53.20;;;;;;5057466;28;20417;-72
2021/04/25 07:50:23;;;;;;;6.93;6.18;;;22.30;51.90;;;;;;5057777;28;20037;-72
2021/04/25 07:52:50;;;;;;;8.18;5.82;;;22.50;51.50;;;;;;5057351;28;20329;-72
2021/04/25 07:55:17;;;;;;;6.70;5.80;;;22.40;50.90;;;;;;5057289;28;20040;-72
2021/04/25 07:57:42;;;;;;;10.63;6.43;;;22.10;51.20;;;;;;5057506;28;20074;-72
2021/04/25 08:00:11;;;;;;;11.02;6.53;;;21.90;50.30;;;;;;5057622;28;20013;-72
2021/04/25 08:02:37;;;;;;;9.90;7.28;;;22.10;51.10;;;;;;5057510;28;20029;-72
2021/04/25 08:05:05;;;;;;;13.57;5.85;;;21.80;50.90;;;;;;5057413;28;20519;-72
2021/04/25 08:07:30;;;;;;;8.07;6.60;;;21.90;51.90;;;;;;5057438;28;20029;-72
2021/04/25 08:09:56;;;;;;;8.45;6.55;;;22.00;52.00;;;;;;5057090;28;20436;-72
2021/04/25 08:12:22;;;;;;;7.45;5.85;;;22.00;51.90;;;;;;5057060;28;20029;-72
2021/04/25 08:14:47;;;;;;;11.00;6.50;;;22.10;51.40;;;;;;5056941;28;20033;-72
2021/04/25 08:17:13;;;;;;;9.63;5.85;;;22.30;53.50;;;;;;5057165;28;20108;-72
2021/04/25 08:19:39;;;;;;;9.50;5.70;;;22.60;52.00;;;;;;5056953;28;20025;-72
2021/04/25 08:22:06;;;;;;;9.32;6.43;;;22.80;50.60;;;;;;5056865;28;20082;-72
2021/04/25 08:24:33;;;;;;;8.52;6.78;;;23.10;51.10;;;;;;5057180;28;20082;-72
2021/04/25 08:26:59;;;;;;;7.82;6.43;;;23.00;51.90;;;;;;5056024;28;20033;-72
2021/04/25 08:29:25;;;;;;;7.65;6.10;;;22.90;52.20;;;;;;5056704;28;20103;-72
2021/04/25 08:31:51;;;;;;;8.43;6.30;;;22.90;52.90;;;;;;5057008;28;20021;-72
2021/04/25 08:34:17;;;;;;;9.95;7.55;;;23.10;52.50;;;;;;5056964;28;20032;-72
2021/04/25 08:36:42;;;;;;;12.07;7.63;;;23.60;52.00;;;;;;5056585;28;20313;-72
2021/04/25 08:39:08;;;;;;;9.27;6.15;;;23.90;48.30;;;;;;5056579;28;20048;-72
2021/04/25 08:41:34;;;;;;;7.78;5.72;;;23.80;50.70;;;;;;5056936;28;20036;-72
2021/04/25 08:44:02;;;;;;;12.68;7.22;;;23.90;50.30;;;;;;5056539;28;20333;-72
2021/04/25 08:46:29;;;;;;;10.55;6.57;;;23.90;50.20;;;;;;5056575;28;20040;-72
2021/04/25 08:48:56;;;;;;;7.75;6.05;;;23.90;52.70;;;;;;5056821;28;20024;-72
2021/04/25 08:51:22;;;;;;;7.57;6.28;;;23.90;53.60;;;;;;5056855;28;20122;-72
2021/04/25 08:53:49;;;;;;;8.10;6.22;;;24.00;52.50;;;;;;5056363;28;20482;-72
2021/04/25 08:56:16;;;;;;;9.05;7.07;;;24.10;51.90;;;;;;5056685;28;20037;-72
2021/04/25 08:58:43;;;;;;;14.05;6.53;;;23.80;48.90;;;;;;5056764;28;20032;-72
2021/04/25 09:01:10;;;;;;;9.73;7.32;;;23.90;50.50;;;;;;5056795;28;20425;-72
2021/04/25 09:03:36;;;;;;;8.18;6.90;;;23.80;48.20;;;;;;5056427;28;20025;-72
2021/04/25 09:06:05;;;;;;;9.68;7.22;;;24.00;50.50;;;;;;5056432;28;20029;-72
2021/04/25 09:08:57;;;;;;;8.60;7.22;;;24.10;49.50;;;;;;5056652;28;20025;-72
2021/04/25 09:11:42;;;;;;;10.60;7.22;;;24.00;49.00;;;;;;5056656;28;20079;-72
2021/04/25 09:14:23;;;;;;;8.40;6.72;;;24.00;51.20;;;;;;5056610;28;20025;-72
2021/04/25 09:16:53;;;;;;;10.50;7.22;;;24.10;49.00;;;;;;5056502;28;20033;-72
2021/04/25 09:19:19;;;;;;;10.10;7.50;;;24.40;48.70;;;;;;5056239;28;20099;-72
2021/04/25 09:21:55;;;;;;;10.82;7.25;;;24.20;50.80;;;;;;5056544;28;20075;-72
2021/04/25 09:24:29;;;;;;;10.35;7.20;;;24.10;51.40;;;;;;5056493;28;20025;-72
2021/04/25 09:26:57;;;;;;;10.40;7.72;;;24.30;50.70;;;;;;5056493;28;20333;-72
2021/04/25 09:29:26;;;;;;;11.00;7.40;;;24.30;49.80;;;;;;5056174;28;20096;-72
2021/04/25 09:31:54;;;;;;;9.88;7.35;;;24.50;49.20;;;;;;5056114;28;20063;-72
2021/04/25 09:34:29;;;;;;;11.10;7.65;;;24.70;49.00;;;;;;5056382;28;20035;-72
2021/04/25 09:36:56;;;;;;;9.85;7.63;;;24.70;49.30;;;;;;5056358;28;20052;-72
2021/04/25 09:39:23;;;;;;;10.48;8.68;;;25.00;48.40;;;;;;5058492;28;20075;-72
2021/04/25 09:41:50;;;;;;;10.07;7.25;;;25.10;46.70;;;;;;5060163;28;20025;-72
2021/04/25 09:44:48;;;;;;;13.30;7.95;;;25.20;50.40;;;;;;5060046;28;20290;-72
2021/04/25 09:47:14;;;;;;;9.77;7.38;;;25.40;47.70;;;;;;5058650;28;20040;-73
2021/04/25 09:49:49;;;;;;;11.70;7.82;;;25.50;48.50;;;;;;5059754;28;20021;-73
2021/04/25 09:52:27;;;;;;;9.35;7.82;;;25.30;47.20;;;;;;5060116;28;20087;-72
2021/04/25 09:55:14;;;;;;;16.15;8.43;;;25.00;49.00;;;;;;5060084;28;20029;-72
2021/04/25 09:57:39;;;;;;;11.43;8.35;;;24.70;49.80;;;;;;5059819;28;20037;-72
2021/04/25 10:00:06;;;;;;;14.00;7.43;;;24.70;49.40;;;;;;5059367;28;20024;-72
2021/04/25 10:02:32;;;;;;;14.13;8.20;;;24.90;50.70;;;;;;5059345;28;20421;-73
2021/04/25 10:05:07;;;;;;;12.18;9.57;;;25.00;50.60;;;;;;5059635;28;20089;-72
2021/04/25 10:07:36;;;;;;;14.50;8.18;;;24.60;49.20;;;;;;5059413;28;20141;-72
2021/04/25 10:10:13;;;;;;;9.38;7.97;;;23.80;52.70;;;;;;5059657;28;20033;-72
2021/04/25 10:12:39;;;;;;;10.10;8.55;;;23.90;53.70;;;;;;5059532;28;20047;-72
2021/04/25 10:15:05;;;;;;;11.30;8.30;;;24.20;50.00;;;;;;5052589;28;20033;-72
2021/04/25 10:17:31;;;;;;;24.45;9.80;;;24.60;51.40;;;;;;5048268;28;20029;-72
2021/04/25 10:19:59;;;;;;;11.18;8.68;;;24.80;49.10;;;;;;5039239;28;20414;-72
2021/04/25 10:22:25;;;;;;;9.45;7.65;;;24.80;48.70;;;;;;5039503;28;20026;-73
2021/04/25 10:24:51;;;;;;;11.68;8.43;;;24.90;51.70;;;;;;5038989;28;20025;-72
2021/04/25 10:27:17;;;;;;;11.23;8.50;;;24.90;48.00;;;;;;5039071;28;20048;-72
2021/04/25 10:29:53;;;;;;;9.43;8.30;;;24.80;49.80;;;;;;5038853;28;20025;-72
2021/04/25 10:32:20;;;;;;;12.57;8.73;;;24.90;52.60;;;;;;5038752;28;20113;-73
2021/04/25 10:34:49;;;;;;;10.10;8.88;;;24.90;48.40;;;;;;5039243;28;20317;-73
2021/04/25 10:37:15;;;;;;;14.20;9.00;;;24.80;50.10;;;;;;5038878;28;20033;-72
2021/04/25 10:39:50;;;;;;;9.65;8.52;;;24.80;50.70;;;;;;5038733;28;20096;-73
2021/04/25 10:45:05;;;;;;;11.68;8.07;;;24.80;49.90;;;;;;5039054;28;20064;-72
2021/04/25 10:47:32;;;;;;;11.23;8.52;;;24.70;50.20;;;;;;5038672;28;20418;-73
2021/04/25 10:50:00;;;;;;;12.23;7.80;;;24.90;52.70;;;;;;5038099;28;20325;-73
2021/04/25 10:52:27;;;;;;;12.13;9.23;;;24.90;53.50;;;;;;5038973;28;20326;-72
2021/04/25 10:55:11;;;;;;;9.85;8.85;;;24.80;52.00;;;;;;5039007;28;20034;-72
2021/04/25 10:57:59;;;;;;;11.32;9.38;;;24.50;49.70;;;;;;5038549;28;20030;-72
2021/04/25 11:00:31;;;;;;;15.95;8.73;;;24.50;52.00;;;;;;5037892;28;20433;-72
2021/04/25 11:03:01;;;;;;;9.88;8.63;;;24.50;52.50;;;;;;5038766;28;20053;-72
2021/04/25 11:05:39;;;;;;;11.43;8.52;;;24.20;55.10;;;;;;5038399;28;20080;-72
2021/04/25 11:08:26;;;;;;;14.13;10.07;;;24.10;54.40;;;;;;5038311;28;20044;-72
2021/04/25 11:10:57;;;;;;;12.60;8.88;;;24.00;52.60;;;;;;5038120;28;20079;-72
2021/04/25 11:13:49;;;;;;;9.50;8.50;;;24.00;56.80;;;;;;5038471;28;20025;-72
2021/04/25 11:16:18;;;;;;;9.88;8.57;;;24.40;55.40;;;;;;5038117;28;20025;-72
2021/04/25 11:18:53;;;;;;;11.20;8.55;;;24.50;56.40;;;;;;5038373;28;20036;-72
2021/04/25 11:24:02;;;;;;;11.20;9.30;;;24.80;51.10;;;;;;5038402;28;20033;-73
2021/04/25 11:26:34;;;;;;;13.07;10.05;;;24.50;49.70;;;;;;5037967;28;20033;-73
2021/04/25 11:29:15;;;;;;;11.32;8.07;;;24.40;52.60;;;;;;5037906;28;20038;-74
2021/04/25 11:31:47;;;;;;;12.13;9.13;;;24.50;56.10;;;;;;5037921;28;20037;-71
2021/04/25 11:34:25;;;;;;;12.45;9.68;;;24.60;51.10;;;;;;5038059;28;20037;-73
2021/04/25 11:36:51;;;;;;;10.55;9.50;;;24.30;52.30;;;;;;5037727;28;20063;-73
2021/04/25 11:39:24;;;;;;;10.40;8.70;;;24.10;55.70;;;;;;5037682;28;20052;-73
2021/04/25 11:41:51;;;;;;;14.90;10.45;;;24.10;54.70;;;;;;5037727;28;20418;-73
2021/04/25 11:44:30;;;;;;;10.98;9.77;;;24.10;52.10;;;;;;5037528;28;20026;-73
2021/04/25 11:46:58;;;;;;;13.38;9.60;;;24.10;54.20;;;;;;5037664;28;20456;-73
2021/04/25 11:49:34;;;;;;;12.20;10.93;;;24.30;54.30;;;;;;5037542;28;20039;-73
2021/04/25 11:52:18;;;;;;;11.55;8.73;;;24.10;51.70;;;;;;5037813;28;20029;-73
2021/04/25 11:54:46;;;;;;;12.40;9.07;;;23.80;54.20;;;;;;5037296;28;20029;-73
2021/04/25 11:57:14;;;;;;;12.25;10.55;;;23.80;55.50;;;;;;5037625;28;20425;-73
2021/04/25 12:00:01;;;;;;;13.20;9.27;;;23.60;50.10;;;;;;5037373;28;20026;-73
2021/04/25 12:02:32;;;;;;;13.88;9.15;;;23.30;52.50;;;;;;5037559;28;20032;-73
2021/04/25 12:05:00;;;;;;;12.07;8.65;;;23.20;55.80;;;;;;5037604;28;20025;-73
2021/04/25 12:07:30;;;;;;;10.85;7.97;;;23.10;53.60;;;;;;5037237;28;20030;-73
2021/04/25 12:09:56;;;;;;;16.15;8.65;;;23.20;53.90;;;;;;5037510;28;20040;-73
2021/04/25 12:12:21;;;;;;;11.32;9.68;;;23.10;55.80;;;;;;5037477;28;20330;-73
2021/04/25 12:14:58;;;;;;;11.00;8.38;;;23.00;52.50;;;;;;5037072;28;20079;-73
2021/04/25 12:17:24;;;;;;;16.45;8.50;;;23.00;56.90;;;;;;5037359;28;20025;-73
2021/04/25 12:19:50;;;;;;;11.75;8.48;;;22.90;54.40;;;;;;5037060;28;20105;-73
2021/04/25 12:22:15;;;;;;;11.38;8.65;;;22.90;52.20;;;;;;5037305;28;20027;-73
2021/04/25 12:24:41;;;;;;;15.25;9.02;;;22.70;53.80;;;;;;5037261;28;20055;-73
2021/04/25 12:27:07;;;;;;;8.90;7.10;;;22.60;51.70;;;;;;5036912;28;20026;-73
2021/04/25 12:29:37;;;;;;;9.70;6.90;;;22.50;56.00;;;;;;5037155;28;20029;-73
2021/04/25 12:32:04;;;;;;;11.57;7.72;;;22.60;58.10;;;;;;5036724;28;20029;-73
2021/04/25 12:34:32;;;;;;;11.25;8.90;;;22.60;55.70;;;;;;5037048;28;20025;-73
2021/04/25 12:36:59;;;;;;;14.40;9.10;;;22.70;53.60;;;;;;5037047;28;20087;-73
2021/04/25 12:39:41;;;;;;;10.25;7.97;;;22.50;52.90;;;;;;5036593;28;20054;-73
2021/04/25 12:42:20;;;;;;;9.85;7.82;;;22.30;56.50;;;;;;5036707;28;20100;-73
2021/04/25 12:44:46;;;;;;;10.45;8.10;;;22.20;57.00;;;;;;5036964;28;20021;-73
2021/04/25 12:47:12;;;;;;;11.02;7.63;;;22.20;52.10;;;;;;5036708;28;20183;-73
2021/04/25 12:49:44;;;;;;;10.55;7.93;;;22.20;58.10;;;;;;5036692;28;20036;-73